createdAt,value
2019-04-16T00:00:56.901Z,52.33
2019-04-16T00:01:56.865Z,52.52
2019-04-16T00:02:56.845Z,52.33
2019-04-16T00:03:56.800Z,52.52
2019-04-16T00:04:57.563Z,52.33
2019-04-16T00:05:58.904Z,52.33
2019-04-16T00:06:56.702Z,52.14
2019-04-16T00:07:56.665Z,52.61
2019-04-16T00:08:57.386Z,52.40
2019-04-16T00:09:56.606Z,52.33
2019-04-16T00:10:56.575Z,52.61
2019-04-16T00:11:56.544Z,52.61
2019-04-16T00:12:56.506Z,52.49
2019-04-16T00:13:56.465Z,52.49
2019-04-16T00:14:56.430Z,53.06
2019-04-16T00:15:56.404Z,52.68
2019-04-16T00:16:56.368Z,52.30
2019-04-16T00:17:56.327Z,53.06
2019-04-16T00:18:58.109Z,53.16
2019-04-16T00:19:56.264Z,53.25
2019-04-16T00:20:56.237Z,52.87
2019-04-16T00:21:56.202Z,53.06
2019-04-16T00:22:56.158Z,53.16
2019-04-16T00:23:56.368Z,53.16
2019-04-16T00:24:56.101Z,53.16
2019-04-16T00:25:56.520Z,53.16
2019-04-16T00:26:59.287Z,52.68
2019-04-16T00:27:59.516Z,52.97
2019-04-16T00:28:55.971Z,52.78
2019-04-16T00:29:55.927Z,52.87
2019-04-16T00:30:55.898Z,52.97
2019-04-16T00:31:55.867Z,53.06
2019-04-16T00:32:55.855Z,52.87
2019-04-16T00:33:55.865Z,52.97
2019-04-16T00:34:55.762Z,53.16
2019-04-16T00:35:55.728Z,52.87
2019-04-16T00:36:55.693Z,53.16
2019-04-16T00:37:55.659Z,53.06
2019-04-16T00:38:55.644Z,53.54
2019-04-16T00:39:56.873Z,53.35
2019-04-16T00:40:55.555Z,53.54
2019-04-16T00:41:55.532Z,53.73
2019-04-16T00:42:55.499Z,53.54
2019-04-16T00:43:55.581Z,53.54
2019-04-16T00:44:55.607Z,53.54
2019-04-16T00:45:55.620Z,53.54
2019-04-16T00:46:55.364Z,53.73
2019-04-16T00:47:55.498Z,53.44
2019-04-16T00:48:55.295Z,53.25
2019-04-16T00:49:57.852Z,53.73
2019-04-16T00:50:55.224Z,53.73
2019-04-16T00:51:55.201Z,53.64
2019-04-16T00:52:55.164Z,53.83
2019-04-16T00:53:55.129Z,53.54
2019-04-16T00:54:55.088Z,53.92
2019-04-16T00:55:55.058Z,53.64
2019-04-16T00:56:55.015Z,53.73
2019-04-16T00:57:54.979Z,53.83
2019-04-16T00:58:54.953Z,53.73
2019-04-16T00:59:56.275Z,54.30
2019-04-16T01:00:54.881Z,53.73
2019-04-16T01:01:54.850Z,54.39
2019-04-16T01:02:54.830Z,54.37
2019-04-16T01:03:54.788Z,54.30
2019-04-16T01:04:54.758Z,54.66
2019-04-16T01:05:54.718Z,54.68
2019-04-16T01:06:54.685Z,54.49
2019-04-16T01:07:54.645Z,54.85
2019-04-16T01:08:55.285Z,54.68
2019-04-16T01:09:54.581Z,54.56
2019-04-16T01:10:54.551Z,54.94
2019-04-16T01:11:54.514Z,54.85
2019-04-16T01:12:54.477Z,54.85
2019-04-16T01:13:55.675Z,54.85
2019-04-16T01:14:58.927Z,54.85
2019-04-16T01:15:54.386Z,54.66
2019-04-16T01:16:54.345Z,54.85
2019-04-16T01:17:54.309Z,54.94
2019-04-16T01:18:54.276Z,54.85
2019-04-16T01:19:54.240Z,54.66
2019-04-16T01:20:54.207Z,54.94
2019-04-16T01:21:54.172Z,54.94
2019-04-16T01:22:54.143Z,54.85
2019-04-16T01:23:54.103Z,54.56
2019-04-16T01:24:54.072Z,55.90
2019-04-16T01:25:55.543Z,55.13
2019-04-16T01:26:55.467Z,54.56
2019-04-16T01:27:53.974Z,54.66
2019-04-16T01:28:53.936Z,55.04
2019-04-16T01:29:53.901Z,55.61
2019-04-16T01:30:53.870Z,55.13
2019-04-16T01:31:53.832Z,55.13
2019-04-16T01:32:53.801Z,55.61
2019-04-16T01:33:53.774Z,56.18
2019-04-16T01:34:53.747Z,55.51
2019-04-16T01:35:53.715Z,55.70
2019-04-16T01:36:54.329Z,56.09
2019-04-16T01:37:56.526Z,55.32
2019-04-16T01:39:07.605Z,55.70
2019-04-16T01:39:53.562Z,55.51
2019-04-16T01:40:53.531Z,55.51
2019-04-16T01:41:53.518Z,55.32
2019-04-16T01:42:54.672Z,55.99
2019-04-16T01:43:54.304Z,55.80
2019-04-16T01:44:53.390Z,55.70
2019-04-16T01:45:53.358Z,55.90
2019-04-16T01:46:53.328Z,55.51
2019-04-16T01:47:53.293Z,55.70
2019-04-16T01:48:53.258Z,55.99
2019-04-16T01:49:53.228Z,56.18
2019-04-16T01:50:53.181Z,55.99
2019-04-16T01:51:53.157Z,56.56
2019-04-16T01:52:53.121Z,56.94
2019-04-16T01:53:53.086Z,56.75
2019-04-16T01:54:54.774Z,56.72
2019-04-16T01:55:56.742Z,55.87
2019-04-16T01:56:52.985Z,56.85
2019-04-16T01:57:52.952Z,56.65
2019-04-16T01:58:52.911Z,56.72
2019-04-16T01:59:52.883Z,56.82
2019-04-16T02:00:52.843Z,56.94
2019-04-16T02:01:52.816Z,56.85
2019-04-16T02:02:52.790Z,57.39
2019-04-16T02:03:52.738Z,57.01
2019-04-16T02:04:52.804Z,56.82
2019-04-16T02:05:54.885Z,56.72
2019-04-16T02:06:54.314Z,57.58
2019-04-16T02:07:52.614Z,57.48
2019-04-16T02:08:52.583Z,57.39
2019-04-16T02:09:52.537Z,58.25
2019-04-16T02:10:52.499Z,58.15
2019-04-16T02:11:52.469Z,57.87
2019-04-16T02:12:52.433Z,57.67
2019-04-16T02:13:52.408Z,57.87
2019-04-16T02:14:52.377Z,57.96
2019-04-16T02:15:53.410Z,57.96
2019-04-16T02:16:55.730Z,57.39
2019-04-16T02:17:52.267Z,57.48
2019-04-16T02:18:52.229Z,57.58
2019-04-16T02:19:52.203Z,58.15
2019-04-16T02:20:52.162Z,57.58
2019-04-16T02:21:52.129Z,57.39
2019-04-16T02:22:52.091Z,57.67
2019-04-16T02:23:52.063Z,57.39
2019-04-16T02:24:52.033Z,57.67
2019-04-16T02:25:52.022Z,57.58
2019-04-16T02:26:54.584Z,57.58
2019-04-16T02:27:54.247Z,58.25
2019-04-16T02:28:51.893Z,58.25
2019-04-16T02:29:53.676Z,58.25
2019-04-16T02:30:51.820Z,57.87
2019-04-16T02:31:52.545Z,58.25
2019-04-16T02:32:51.754Z,57.58
2019-04-16T02:33:51.705Z,58.72
2019-04-16T02:34:51.674Z,58.34
2019-04-16T02:35:51.641Z,57.87
2019-04-16T02:36:51.612Z,58.34
2019-04-16T02:37:51.573Z,58.91
2019-04-16T02:38:53.248Z,58.53
2019-04-16T02:39:51.511Z,58.53
2019-04-16T02:40:53.081Z,58.53
2019-04-16T02:41:56.984Z,58.91
2019-04-16T02:42:51.401Z,58.44
2019-04-16T02:43:51.371Z,58.62
2019-04-16T02:44:51.340Z,59.20
2019-04-16T02:45:56.723Z,59.39
2019-04-16T02:46:51.270Z,59.20
2019-04-16T02:47:51.232Z,58.88
2019-04-16T02:48:51.782Z,58.88
2019-04-16T02:49:56.442Z,58.98
2019-04-16T02:50:51.125Z,59.83
2019-04-16T02:51:51.097Z,58.98
2019-04-16T02:52:52.529Z,58.98
2019-04-16T02:53:54.445Z,59.17
2019-04-16T02:54:50.991Z,59.55
2019-04-16T02:55:50.964Z,59.45
2019-04-16T02:56:52.249Z,59.36
2019-04-16T02:57:50.888Z,59.07
2019-04-16T02:58:50.850Z,59.55
2019-04-16T02:59:50.819Z,59.36
2019-04-16T03:00:50.861Z,59.45
2019-04-16T03:01:51.891Z,60.12
2019-04-16T03:02:53.610Z,60.12
2019-04-16T03:03:50.732Z,60.02
2019-04-16T03:04:50.639Z,59.93
2019-04-16T03:05:50.605Z,60.02
2019-04-16T03:06:50.583Z,59.64
2019-04-16T03:07:50.532Z,60.50
2019-04-16T03:08:50.513Z,59.93
2019-04-16T03:10:00.543Z,59.93
2019-04-16T03:10:50.444Z,60.02
2019-04-16T03:11:50.398Z,60.31
2019-04-16T03:12:52.120Z,60.88
2019-04-16T03:13:52.864Z,60.78
2019-04-16T03:14:50.295Z,60.50
2019-04-16T03:15:50.259Z,60.60
2019-04-16T03:16:50.235Z,61.07
2019-04-16T03:17:50.192Z,61.16
2019-04-16T03:18:50.167Z,61.64
2019-04-16T03:19:51.307Z,61.35
2019-04-16T03:20:52.493Z,61.45
2019-04-16T03:21:50.056Z,61.64
2019-04-16T03:22:50.020Z,61.55
2019-04-16T03:23:49.997Z,61.35
2019-04-16T03:24:49.951Z,61.35
2019-04-16T03:25:49.918Z,61.83
2019-04-16T03:26:50.400Z,62.12
2019-04-16T03:27:51.552Z,62.30
2019-04-16T03:28:49.807Z,62.30
2019-04-16T03:29:49.784Z,62.69
2019-04-16T03:30:49.753Z,63.17
2019-04-16T03:31:57.679Z,63.70
2019-04-16T03:32:49.699Z,63.51
2019-04-16T03:33:51.041Z,63.32
2019-04-16T03:34:50.561Z,63.32
2019-04-16T03:35:49.568Z,63.51
2019-04-16T03:36:49.533Z,63.42
2019-04-16T03:37:49.499Z,63.51
2019-04-16T03:38:49.462Z,63.51
2019-04-16T03:39:49.430Z,63.51
2019-04-16T03:40:49.389Z,64.27
2019-04-16T03:41:49.353Z,64.84
2019-04-16T03:42:49.345Z,64.56
2019-04-16T03:43:49.279Z,64.56
2019-04-16T03:44:49.250Z,64.46
2019-04-16T03:45:49.222Z,64.65
2019-04-16T03:46:49.194Z,65.41
2019-04-16T03:47:51.426Z,65.80
2019-04-16T03:48:49.113Z,65.51
2019-04-16T03:49:49.074Z,65.60
2019-04-16T03:50:49.044Z,65.99
2019-04-16T03:51:49.010Z,65.80
2019-04-16T03:52:48.983Z,65.99
2019-04-16T03:53:49.646Z,65.80
2019-04-16T03:54:53.796Z,66.08
2019-04-16T03:55:48.870Z,65.99
2019-04-16T03:56:48.829Z,66.08
2019-04-16T03:57:48.799Z,66.08
2019-04-16T03:58:48.763Z,66.36
2019-04-16T03:59:48.720Z,66.36
2019-04-16T04:00:48.709Z,66.84
2019-04-16T04:01:48.654Z,67.22
2019-04-16T04:02:54.229Z,67.13
2019-04-16T04:03:48.584Z,67.03
2019-04-16T04:04:48.545Z,67.13
2019-04-16T04:05:48.519Z,67.69
2019-04-16T04:06:48.479Z,67.50
2019-04-16T04:07:48.441Z,67.50
2019-04-16T04:08:51.612Z,68.36
2019-04-16T04:09:48.375Z,67.88
2019-04-16T04:10:48.345Z,68.17
2019-04-16T04:11:48.300Z,68.07
2019-04-16T04:12:48.278Z,67.69
2019-04-16T04:13:50.224Z,68.07
2019-04-16T04:14:48.206Z,68.07
2019-04-16T04:15:48.161Z,68.42
2019-04-16T04:16:48.125Z,68.42
2019-04-16T04:17:48.090Z,67.94
2019-04-16T04:18:48.057Z,68.55
2019-04-16T04:19:48.024Z,67.60
2019-04-16T04:20:50.607Z,68.52
2019-04-16T04:21:50.699Z,68.33
2019-04-16T04:22:47.920Z,67.69
2019-04-16T04:23:47.885Z,68.13
2019-04-16T04:24:47.842Z,68.52
2019-04-16T04:25:47.815Z,68.52
2019-04-16T04:26:47.773Z,68.42
2019-04-16T04:27:47.861Z,68.61
2019-04-16T04:28:48.559Z,68.42
2019-04-16T04:29:47.666Z,68.52
2019-04-16T04:30:48.979Z,68.52
2019-04-16T04:31:47.592Z,68.33
2019-04-16T04:32:47.900Z,68.99
2019-04-16T04:33:47.519Z,70.32
2019-04-16T04:34:48.738Z,69.27
2019-04-16T04:35:47.458Z,69.27
2019-04-16T04:36:47.422Z,68.42
2019-04-16T04:37:47.406Z,69.09
2019-04-16T04:38:47.356Z,69.37
2019-04-16T04:39:47.329Z,69.27
2019-04-16T04:40:50.422Z,69.75
2019-04-16T04:41:47.242Z,69.46
2019-04-16T04:42:47.219Z,69.46
2019-04-16T04:43:47.176Z,69.94
2019-04-16T04:44:47.307Z,70.23
2019-04-16T04:45:47.175Z,69.66
2019-04-16T04:46:47.145Z,70.23
2019-04-16T04:47:51.026Z,70.32
2019-04-16T04:48:46.992Z,69.94
2019-04-16T04:49:46.968Z,69.66
2019-04-16T04:50:46.932Z,70.32
2019-04-16T04:51:46.893Z,70.51
2019-04-16T04:52:46.953Z,70.51
2019-04-16T04:53:47.465Z,70.04
2019-04-16T04:54:46.779Z,70.13
2019-04-16T04:55:46.747Z,71.18
2019-04-16T04:56:46.703Z,70.89
2019-04-16T04:57:46.676Z,71.08
2019-04-16T04:58:46.645Z,71.08
2019-04-16T04:59:46.604Z,71.08
2019-04-16T05:00:46.567Z,71.56
2019-04-16T05:01:46.547Z,71.75
2019-04-16T05:02:46.511Z,71.84
2019-04-16T05:03:47.479Z,71.75
2019-04-16T05:04:46.432Z,71.66
2019-04-16T05:05:46.387Z,72.51
2019-04-16T05:06:46.359Z,72.03
2019-04-16T05:07:46.327Z,71.84
2019-04-16T05:08:46.288Z,71.56
2019-04-16T05:09:46.245Z,71.66
2019-04-16T05:10:58.352Z,70.70
2019-04-16T05:11:48.383Z,70.99
2019-04-16T05:12:46.147Z,70.89
2019-04-16T05:13:46.114Z,70.99
2019-04-16T05:14:46.075Z,71.66
2019-04-16T05:15:46.042Z,71.66
2019-04-16T05:16:46.009Z,70.89
2019-04-16T05:17:45.968Z,70.99
2019-04-16T05:18:45.934Z,70.79
2019-04-16T05:19:45.915Z,71.84
2019-04-16T05:20:46.958Z,71.18
2019-04-16T05:21:49.609Z,70.99
2019-04-16T05:22:45.831Z,70.99
2019-04-16T05:23:45.838Z,71.18
2019-04-16T05:24:45.718Z,70.51
2019-04-16T05:25:45.678Z,70.51
2019-04-16T05:26:45.668Z,69.85
2019-04-16T05:27:45.616Z,70.51
2019-04-16T05:28:45.810Z,70.61
2019-04-16T05:29:48.618Z,70.32
2019-04-16T05:30:45.514Z,70.07
2019-04-16T05:31:45.488Z,69.98
2019-04-16T05:32:45.489Z,69.79
2019-04-16T05:33:45.413Z,69.85
2019-04-16T05:34:45.370Z,69.31
2019-04-16T05:35:45.360Z,69.98
2019-04-16T05:36:47.779Z,69.60
2019-04-16T05:37:45.261Z,69.88
2019-04-16T05:38:45.226Z,69.02
2019-04-16T05:39:45.196Z,69.31
2019-04-16T05:40:45.160Z,69.02
2019-04-16T05:41:45.115Z,68.55
2019-04-16T05:42:45.076Z,68.46
2019-04-16T05:43:45.055Z,68.93
2019-04-16T05:44:45.013Z,69.02
2019-04-16T05:45:44.985Z,69.02
2019-04-16T05:46:46.833Z,68.55
2019-04-16T05:47:48.727Z,69.12
2019-04-16T05:48:44.874Z,68.17
2019-04-16T05:49:44.840Z,68.74
2019-04-16T05:50:44.802Z,68.07
2019-04-16T05:51:44.774Z,67.41
2019-04-16T05:52:44.725Z,67.13
2019-04-16T05:53:44.702Z,67.79
2019-04-16T05:54:45.363Z,68.07
2019-04-16T05:55:49.685Z,68.93
2019-04-16T05:56:44.590Z,68.46
2019-04-16T05:57:44.558Z,68.65
2019-04-16T05:58:44.516Z,68.07
2019-04-16T05:59:44.490Z,68.17
2019-04-16T06:00:44.452Z,68.46
2019-04-16T06:01:45.424Z,68.46
2019-04-16T06:02:44.376Z,68.65
2019-04-16T06:03:44.351Z,68.49
2019-04-16T06:04:44.328Z,69.02
2019-04-16T06:05:44.276Z,68.96
2019-04-16T06:06:44.241Z,68.65
2019-04-16T06:07:44.211Z,68.74
2019-04-16T06:08:44.170Z,68.49
2019-04-16T06:09:44.647Z,69.63
2019-04-16T06:10:44.099Z,69.12
2019-04-16T06:11:44.068Z,69.82
2019-04-16T06:12:44.031Z,69.44
2019-04-16T06:13:44.409Z,69.73
2019-04-16T06:14:46.473Z,70.39
2019-04-16T06:15:43.926Z,70.20
2019-04-16T06:16:43.887Z,70.01
2019-04-16T06:17:43.857Z,69.82
2019-04-16T06:18:43.818Z,70.20
2019-04-16T06:19:46.635Z,69.35
2019-04-16T06:20:43.748Z,69.35
2019-04-16T06:21:43.729Z,70.10
2019-04-16T06:22:43.680Z,69.54
2019-04-16T06:23:43.709Z,69.25
2019-04-16T06:24:43.608Z,69.73
2019-04-16T06:25:43.702Z,69.54
2019-04-16T06:26:44.511Z,69.82
2019-04-16T06:27:43.672Z,70.10
2019-04-16T06:28:43.464Z,70.10
2019-04-16T06:29:43.548Z,69.06
2019-04-16T06:30:43.397Z,68.68
2019-04-16T06:31:43.361Z,68.40
2019-04-16T06:32:43.348Z,68.40
2019-04-16T06:33:43.300Z,68.68
2019-04-16T06:34:43.259Z,68.96
2019-04-16T06:35:43.949Z,68.59
2019-04-16T06:36:43.192Z,68.59
2019-04-16T06:37:45.621Z,67.44
2019-04-16T06:38:43.119Z,67.16
2019-04-16T06:39:43.102Z,67.07
2019-04-16T06:40:43.052Z,67.67
2019-04-16T06:41:47.810Z,67.38
2019-04-16T06:42:42.989Z,67.95
2019-04-16T06:43:42.953Z,67.38
2019-04-16T06:44:42.922Z,66.62
2019-04-16T06:45:42.882Z,66.14
2019-04-16T06:46:42.842Z,67.47
2019-04-16T06:47:42.899Z,66.43
2019-04-16T06:48:46.020Z,66.14
2019-04-16T06:49:42.733Z,65.00
2019-04-16T06:50:42.703Z,65.29
2019-04-16T06:51:44.575Z,65.77
2019-04-16T06:52:42.634Z,65.10
2019-04-16T06:53:42.599Z,64.62
2019-04-16T06:54:45.343Z,64.72
2019-04-16T06:55:43.020Z,64.62
2019-04-16T06:56:42.498Z,64.81
2019-04-16T06:57:43.026Z,63.57
2019-04-16T06:58:50.792Z,63.39
2019-04-16T06:59:42.395Z,63.29
2019-04-16T07:00:42.358Z,62.72
2019-04-16T07:01:42.472Z,61.90
2019-04-16T07:02:45.582Z,61.32
2019-04-16T07:03:42.386Z,60.85
2019-04-16T07:04:42.220Z,60.66
2019-04-16T07:05:42.185Z,60.66
2019-04-16T07:06:43.721Z,59.89
2019-04-16T07:07:46.060Z,59.89
2019-04-16T07:08:42.143Z,60.66
2019-04-16T07:09:42.360Z,59.80
2019-04-16T07:10:44.635Z,60.75
2019-04-16T07:11:53.734Z,59.99
2019-04-16T07:12:42.014Z,60.56
2019-04-16T07:13:42.901Z,60.66
2019-04-16T07:14:41.885Z,59.83
2019-04-16T07:15:41.849Z,59.70
2019-04-16T07:16:41.815Z,59.42
2019-04-16T07:17:41.775Z,58.97
2019-04-16T07:18:41.747Z,58.59
2019-04-16T07:19:42.170Z,58.78
2019-04-16T07:20:42.255Z,59.26
2019-04-16T07:21:41.646Z,59.26
2019-04-16T07:22:41.662Z,58.40
2019-04-16T07:23:45.395Z,58.78
2019-04-16T07:24:41.575Z,57.54
2019-04-16T07:25:43.577Z,57.45
2019-04-16T07:26:46.452Z,57.35
2019-04-16T07:27:41.617Z,57.26
2019-04-16T07:28:41.398Z,57.07
2019-04-16T07:29:41.446Z,56.87
2019-04-16T07:30:41.400Z,57.35
2019-04-16T07:31:41.345Z,58.02
2019-04-16T07:32:41.262Z,57.92
2019-04-16T07:33:41.230Z,58.21
2019-04-16T07:34:41.209Z,57.67
2019-04-16T07:35:41.163Z,57.48
2019-04-16T07:36:41.132Z,57.38
2019-04-16T07:37:41.103Z,57.95
2019-04-16T07:38:41.071Z,57.86
2019-04-16T07:39:41.032Z,57.38
2019-04-16T07:40:40.997Z,56.81
2019-04-16T07:41:43.292Z,56.24
2019-04-16T07:42:51.767Z,56.90
2019-04-16T07:43:40.891Z,57.38
2019-04-16T07:44:40.863Z,57.48
2019-04-16T07:45:40.831Z,56.90
2019-04-16T07:46:40.798Z,56.90
2019-04-16T07:47:40.762Z,57.19
2019-04-16T07:48:40.737Z,56.84
2019-04-16T07:49:40.705Z,56.24
2019-04-16T07:50:40.662Z,56.74
2019-04-16T07:51:40.632Z,56.65
2019-04-16T07:52:42.078Z,56.74
2019-04-16T07:53:40.656Z,55.88
2019-04-16T07:54:40.518Z,55.88
2019-04-16T07:55:40.488Z,56.07
2019-04-16T07:56:40.475Z,55.69
2019-04-16T07:57:40.443Z,55.79
2019-04-16T07:58:40.459Z,55.50
2019-04-16T07:59:40.369Z,55.50
2019-04-16T08:00:41.387Z,55.02
2019-04-16T08:01:40.313Z,55.79
2019-04-16T08:02:40.267Z,55.02
2019-04-16T08:03:40.238Z,56.07
2019-04-16T08:04:40.205Z,55.34
2019-04-16T08:05:41.141Z,56.01
2019-04-16T08:06:40.132Z,55.62
2019-04-16T08:07:40.099Z,55.82
2019-04-16T08:08:40.063Z,55.43
2019-04-16T08:09:40.043Z,55.91
2019-04-16T08:10:39.996Z,55.43
2019-04-16T08:11:40.004Z,55.15
2019-04-16T08:12:42.015Z,54.57
2019-04-16T08:13:39.895Z,54.67
2019-04-16T08:14:39.934Z,54.96
2019-04-16T08:15:39.838Z,54.57
2019-04-16T08:16:47.207Z,54.38
2019-04-16T08:17:39.758Z,54.67
2019-04-16T08:18:39.739Z,54.79
2019-04-16T08:19:39.701Z,53.55
2019-04-16T08:20:39.674Z,54.22
2019-04-16T08:21:40.663Z,54.79
2019-04-16T08:22:40.031Z,53.93
2019-04-16T08:23:39.719Z,54.13
2019-04-16T08:24:39.538Z,53.74
2019-04-16T08:25:39.505Z,53.74
2019-04-16T08:26:41.582Z,53.08
2019-04-16T08:27:39.446Z,53.55
2019-04-16T08:28:39.408Z,53.65
2019-04-16T08:29:39.387Z,53.45
2019-04-16T08:30:39.627Z,53.86
2019-04-16T08:31:40.818Z,52.91
2019-04-16T08:32:39.279Z,53.20
2019-04-16T08:33:39.256Z,52.91
2019-04-16T08:34:39.219Z,53.10
2019-04-16T08:35:39.180Z,52.91
2019-04-16T08:36:39.164Z,53.10
2019-04-16T08:37:48.966Z,52.34
2019-04-16T08:38:39.086Z,52.24
2019-04-16T08:39:39.811Z,52.53
2019-04-16T08:40:39.022Z,52.53
2019-04-16T08:41:38.985Z,52.24
2019-04-16T08:42:44.612Z,51.48
2019-04-16T08:43:38.946Z,50.71
2019-04-16T08:44:38.898Z,51.03
2019-04-16T08:45:39.875Z,51.60
2019-04-16T08:46:40.136Z,52.17
2019-04-16T08:47:38.795Z,51.50
2019-04-16T08:48:38.765Z,50.45
2019-04-16T08:49:38.740Z,50.64
2019-04-16T08:50:38.705Z,49.98
2019-04-16T08:51:38.666Z,50.64
2019-04-16T08:52:41.683Z,50.84
2019-04-16T08:53:38.596Z,51.15
2019-04-16T08:54:38.602Z,51.43
2019-04-16T08:55:38.546Z,51.91
2019-04-16T08:56:38.512Z,50.57
2019-04-16T08:57:38.498Z,50.86
2019-04-16T08:58:39.143Z,50.57
2019-04-16T08:59:39.510Z,50.00
2019-04-16T09:00:38.388Z,50.57
2019-04-16T09:01:38.355Z,50.57
2019-04-16T09:02:38.326Z,50.95
2019-04-16T09:03:38.290Z,50.76
2019-04-16T09:04:38.263Z,50.31
2019-04-16T09:05:41.250Z,50.00
2019-04-16T09:06:38.385Z,49.64
2019-04-16T09:07:38.163Z,49.84
2019-04-16T09:08:38.138Z,50.02
2019-04-16T09:09:38.096Z,50.60
2019-04-16T09:10:38.078Z,50.41
2019-04-16T09:11:38.040Z,48.78
2019-04-16T09:12:40.738Z,48.88
2019-04-16T09:13:40.958Z,48.68
2019-04-16T09:14:37.950Z,48.49
2019-04-16T09:15:37.932Z,49.16
2019-04-16T09:16:37.884Z,48.68
2019-04-16T09:17:37.861Z,48.61
2019-04-16T09:18:37.826Z,49.00
2019-04-16T09:19:37.787Z,48.80
2019-04-16T09:20:38.534Z,48.61
2019-04-16T09:21:43.249Z,46.98
2019-04-16T09:22:48.715Z,46.89
2019-04-16T09:23:37.663Z,47.47
2019-04-16T09:24:41.393Z,46.41
2019-04-16T09:25:37.614Z,47.94
2019-04-16T09:26:37.583Z,47.47
2019-04-16T09:27:37.549Z,47.87
2019-04-16T09:28:37.513Z,46.82
2019-04-16T09:29:39.146Z,45.29
2019-04-16T09:30:37.458Z,45.09
2019-04-16T09:31:37.426Z,45.67
2019-04-16T09:32:37.394Z,46.44
2019-04-16T09:33:37.391Z,47.11
2019-04-16T09:34:39.553Z,46.34
2019-04-16T09:35:37.302Z,46.05
2019-04-16T09:36:37.282Z,46.26
2019-04-16T09:37:37.239Z,45.02
2019-04-16T09:38:37.220Z,45.21
2019-04-16T09:39:37.179Z,45.79
2019-04-16T09:40:37.144Z,44.26
2019-04-16T09:41:37.360Z,45.31
2019-04-16T09:42:37.092Z,46.17
2019-04-16T09:43:40.132Z,45.59
2019-04-16T09:44:37.029Z,45.14
2019-04-16T09:45:38.015Z,45.23
2019-04-16T09:46:52.434Z,45.43
2019-04-16T09:47:37.111Z,45.23
2019-04-16T09:48:36.916Z,45.64
2019-04-16T09:49:37.572Z,44.87
2019-04-16T09:50:42.962Z,45.16
2019-04-16T09:51:36.835Z,44.97
2019-04-16T09:52:36.800Z,44.87
2019-04-16T09:53:40.111Z,44.13
2019-04-16T09:54:36.755Z,43.07
2019-04-16T09:55:36.709Z,42.88
2019-04-16T09:56:36.676Z,44.15
2019-04-16T09:57:36.649Z,43.38
2019-04-16T09:58:37.750Z,42.35
2019-04-16T09:59:36.586Z,41.49
2019-04-16T10:00:36.561Z,41.41
2019-04-16T10:01:36.539Z,40.64
2019-04-16T10:02:36.511Z,41.14
2019-04-16T10:03:36.470Z,40.76
2019-04-16T10:04:37.074Z,42.03
2019-04-16T10:05:36.420Z,40.61
2019-04-16T10:06:36.409Z,40.41
2019-04-16T10:07:39.811Z,38.31
2019-04-16T10:08:36.344Z,37.54
2019-04-16T10:09:36.324Z,38.04
2019-04-16T10:10:36.301Z,38.14
2019-04-16T10:11:36.467Z,37.68
2019-04-16T10:12:36.259Z,36.71
2019-04-16T10:13:36.511Z,36.15
2019-04-16T10:14:36.190Z,36.75
2019-04-16T10:15:36.170Z,36.27
2019-04-16T10:16:36.143Z,35.59
2019-04-16T10:17:36.117Z,34.53
2019-04-16T10:18:36.158Z,34.82
2019-04-16T10:19:36.085Z,33.44
2019-04-16T10:20:36.043Z,35.19
2019-04-16T10:21:36.025Z,36.06
2019-04-16T10:22:35.982Z,34.22
2019-04-16T10:23:35.961Z,34.14
2019-04-16T10:24:35.969Z,34.82
2019-04-16T10:25:35.921Z,34.84
2019-04-16T10:26:35.901Z,34.95
2019-04-16T10:27:35.897Z,35.05
2019-04-16T10:28:37.062Z,34.76
2019-04-16T10:29:35.841Z,34.38
2019-04-16T10:30:35.819Z,32.64
2019-04-16T10:31:35.771Z,32.81
2019-04-16T10:32:35.774Z,32.91
2019-04-16T10:33:35.727Z,33.58
2019-04-16T10:34:36.424Z,34.86
2019-04-16T10:35:35.679Z,33.40
2019-04-16T10:36:37.942Z,34.10
2019-04-16T10:37:35.631Z,34.29
2019-04-16T10:38:35.626Z,33.14
2019-04-16T10:39:35.626Z,32.73
2019-04-16T10:40:35.584Z,32.54
2019-04-16T10:41:35.542Z,34.29
2019-04-16T10:42:35.532Z,33.25
2019-04-16T10:43:44.385Z,32.57
2019-04-16T10:44:35.483Z,33.45
2019-04-16T10:45:35.439Z,32.59
2019-04-16T10:46:35.449Z,31.80
2019-04-16T10:47:35.811Z,32.09
2019-04-16T10:48:35.416Z,32.09
2019-04-16T10:49:35.361Z,32.57
2019-04-16T10:50:35.323Z,32.87
2019-04-16T10:51:35.325Z,32.87
2019-04-16T10:52:35.277Z,32.70
2019-04-16T10:53:35.317Z,31.23
2019-04-16T10:54:37.309Z,31.43
2019-04-16T10:55:35.240Z,32.09
2019-04-16T10:56:35.206Z,32.87
2019-04-16T10:57:38.310Z,33.28
2019-04-16T10:58:35.165Z,32.60
2019-04-16T10:59:35.146Z,32.79
2019-04-16T11:00:35.122Z,32.52
2019-04-16T11:01:35.337Z,32.42
2019-04-16T11:02:35.103Z,32.52
2019-04-16T11:03:35.460Z,31.84
2019-04-16T11:04:35.019Z,31.63
2019-04-16T11:05:34.997Z,32.81
2019-04-16T11:06:35.008Z,33.10
2019-04-16T11:07:34.949Z,32.62
2019-04-16T11:08:34.962Z,31.86
2019-04-16T11:09:34.895Z,32.34
2019-04-16T11:10:34.896Z,31.67
2019-04-16T11:11:34.925Z,31.67
2019-04-16T11:12:34.912Z,32.64
2019-04-16T11:13:34.805Z,30.99
2019-04-16T11:14:34.782Z,31.97
2019-04-16T11:15:34.760Z,31.20
2019-04-16T11:16:36.092Z,31.37
2019-04-16T11:17:34.739Z,31.37
2019-04-16T11:18:34.724Z,31.67
2019-04-16T11:19:34.692Z,31.96
2019-04-16T11:20:34.654Z,32.06
2019-04-16T11:21:34.639Z,31.47
2019-04-16T11:22:34.634Z,30.99
2019-04-16T11:23:34.677Z,31.67
2019-04-16T11:24:34.617Z,31.96
2019-04-16T11:25:34.540Z,32.56
2019-04-16T11:26:34.515Z,31.87
2019-04-16T11:27:34.500Z,31.78
2019-04-16T11:28:34.507Z,31.78
2019-04-16T11:29:34.458Z,32.07
2019-04-16T11:30:34.425Z,31.01
2019-04-16T11:31:34.405Z,31.39
2019-04-16T11:32:39.049Z,31.29
2019-04-16T11:33:34.359Z,31.70
2019-04-16T11:34:34.353Z,31.29
2019-04-16T11:35:34.442Z,30.69
2019-04-16T11:36:34.316Z,31.49
2019-04-16T11:37:36.271Z,32.56
2019-04-16T11:38:34.254Z,31.78
2019-04-16T11:39:34.222Z,31.41
2019-04-16T11:40:34.210Z,31.31
2019-04-16T11:41:34.209Z,31.18
2019-04-16T11:42:34.212Z,32.84
2019-04-16T11:43:34.179Z,32.34
2019-04-16T11:44:34.137Z,33.23
2019-04-16T11:45:34.095Z,31.78
2019-04-16T11:46:34.094Z,32.09
2019-04-16T11:47:34.868Z,31.60
2019-04-16T11:48:37.251Z,30.73
2019-04-16T11:49:34.027Z,30.92
2019-04-16T11:50:36.032Z,31.31
2019-04-16T11:51:33.977Z,30.34
2019-04-16T11:52:33.986Z,31.12
2019-04-16T11:53:33.918Z,31.41
2019-04-16T11:54:33.903Z,31.70
2019-04-16T11:55:33.895Z,31.70
2019-04-16T11:56:33.900Z,32.78
2019-04-16T11:57:34.125Z,31.42
2019-04-16T11:58:33.811Z,31.15
2019-04-16T11:59:33.843Z,30.85
2019-04-16T12:00:33.802Z,30.84
2019-04-16T12:01:33.803Z,30.44
2019-04-16T12:02:33.735Z,31.42
2019-04-16T12:03:36.517Z,30.74
2019-04-16T12:04:33.672Z,30.94
2019-04-16T12:05:33.687Z,31.04
2019-04-16T12:06:33.629Z,31.23
2019-04-16T12:07:33.658Z,31.63
2019-04-16T12:08:33.618Z,30.85
2019-04-16T12:09:33.607Z,30.76
2019-04-16T12:10:33.539Z,30.76
2019-04-16T12:11:33.527Z,30.37
2019-04-16T12:12:33.530Z,30.66
2019-04-16T12:13:33.498Z,30.57
2019-04-16T12:14:34.879Z,30.57
2019-04-16T12:15:33.443Z,30.27
2019-04-16T12:16:33.414Z,31.74
2019-04-16T12:17:36.246Z,30.58
2019-04-16T12:18:33.439Z,31.45
2019-04-16T12:19:33.367Z,31.84
2019-04-16T12:20:33.421Z,30.87
2019-04-16T12:21:33.355Z,30.77
2019-04-16T12:22:33.299Z,30.97
2019-04-16T12:23:33.329Z,30.79
2019-04-16T12:24:33.238Z,30.50
2019-04-16T12:25:33.250Z,30.30
2019-04-16T12:26:33.208Z,30.79
2019-04-16T12:27:33.170Z,30.30
2019-04-16T12:28:33.169Z,30.88
2019-04-16T12:29:33.130Z,30.30
2019-04-16T12:30:33.118Z,30.30
2019-04-16T12:31:33.093Z,30.01
2019-04-16T12:32:33.087Z,30.40
2019-04-16T12:33:33.159Z,30.87
2019-04-16T12:34:33.123Z,31.84
2019-04-16T12:35:34.773Z,31.16
2019-04-16T12:36:32.983Z,31.16
2019-04-16T12:37:37.335Z,31.65
2019-04-16T12:38:32.934Z,30.88
2019-04-16T12:39:35.770Z,29.91
2019-04-16T12:40:32.899Z,30.30
2019-04-16T12:41:32.915Z,30.88
2019-04-16T12:42:32.861Z,30.50
2019-04-16T12:43:32.855Z,30.40
2019-04-16T12:44:44.692Z,30.00
2019-04-16T12:45:32.790Z,30.55
2019-04-16T12:46:32.797Z,30.76
2019-04-16T12:47:32.760Z,31.44
2019-04-16T12:48:32.755Z,31.82
2019-04-16T12:49:32.706Z,30.76
2019-04-16T12:50:32.708Z,30.91
2019-04-16T12:51:32.685Z,32.37
2019-04-16T12:52:32.629Z,32.37